Time;durP1;ratioP1;P1;durP2;ratioP2;P2;SDS_P1;SDS_P2;PMS_P1;PMS_P2;Temp;Humidity;BMP_temperature;BMP_pressure;BME280_temperature;BME280_humidity;BME280_pressure;Samples;Min_cycle;Max_cycle;Signal;HPM_P1;HPM_P2
2021/05/04 00:01:10;;;;;;;3.92;2.55;;;9.00;54.30;;;;;;5137077;28;20047;-41
2021/05/04 00:03:35;;;;;;;3.85;2.40;;;9.00;54.20;;;;;;5136697;28;20403;-42
2021/05/04 00:06:01;;;;;;;5.80;2.80;;;9.00;54.30;;;;;;5137162;28;20421;-41
2021/05/04 00:08:27;;;;;;;5.47;2.70;;;9.00;54.30;;;;;;5136323;28;20035;-44
2021/05/04 00:10:53;;;;;;;5.18;2.53;;;9.00;54.30;;;;;;5137155;28;20191;-41
2021/05/04 00:13:18;;;;;;;4.03;2.70;;;9.00;54.40;;;;;;5136664;28;20084;-41
2021/05/04 00:15:44;;;;;;;5.85;2.70;;;8.90;54.10;;;;;;5136826;28;20035;-48
2021/05/04 00:18:10;;;;;;;3.75;2.38;;;9.00;54.30;;;;;;5136480;28;20031;-44
2021/05/04 00:20:35;;;;;;;5.57;2.60;;;8.90;54.20;;;;;;5136672;28;20422;-49
2021/05/04 00:23:01;;;;;;;3.95;2.38;;;8.90;54.20;;;;;;5118082;28;20471;-41
2021/05/04 00:25:27;;;;;;;4.20;2.30;;;8.90;54.20;;;;;;5136741;27;20050;-44
2021/05/04 00:27:53;;;;;;;2.80;2.10;;;8.90;54.30;;;;;;5140511;27;20031;-41
2021/05/04 00:30:18;;;;;;;3.97;2.60;;;8.80;54.30;;;;;;5140837;27;20041;-41
2021/05/04 00:32:44;;;;;;;3.70;2.72;;;8.80;54.40;;;;;;5140389;27;20032;-41
2021/05/04 00:35:10;;;;;;;5.55;2.40;;;8.80;54.50;;;;;;5140456;27;20031;-45
2021/05/04 00:37:36;;;;;;;3.95;2.70;;;8.80;54.50;;;;;;5140114;27;20461;-41
2021/05/04 00:40:03;;;;;;;2.83;2.40;;;8.80;54.60;;;;;;5140837;27;20066;-45
2021/05/04 00:42:28;;;;;;;3.97;2.70;;;8.80;54.70;;;;;;5140445;27;20091;-41
2021/05/04 00:44:54;;;;;;;3.20;2.42;;;8.80;54.80;;;;;;5140678;27;20035;-46
2021/05/04 00:47:20;;;;;;;5.28;2.97;;;8.80;54.80;;;;;;5140108;27;20042;-41
2021/05/04 00:49:46;;;;;;;7.13;2.65;;;8.80;54.80;;;;;;5140313;27;20085;-45
2021/05/04 00:52:12;;;;;;;3.83;2.72;;;8.80;54.70;;;;;;5140476;27;20031;-41
2021/05/04 00:54:39;;;;;;;3.35;2.40;;;8.70;54.80;;;;;;5140258;27;20101;-43
2021/05/04 00:57:06;;;;;;;2.47;2.05;;;8.70;54.90;;;;;;5139684;27;20118;-44
2021/05/04 00:59:33;;;;;;;3.95;2.60;;;8.70;55.00;;;;;;5140071;27;20034;-42
2021/05/04 01:01:59;;;;;;;4.38;3.15;;;8.70;55.20;;;;;;5139989;27;20326;-45
2021/05/04 01:04:25;;;;;;;3.58;2.58;;;8.70;55.30;;;;;;5140084;27;20023;-41
2021/05/04 01:06:50;;;;;;;3.88;2.30;;;8.60;55.20;;;;;;5139737;27;20031;-42
2021/05/04 01:09:17;;;;;;;2.65;2.40;;;8.60;55.40;;;;;;5139850;27;20035;-46
2021/05/04 01:11:44;;;;;;;4.00;2.70;;;8.60;55.40;;;;;;5139805;27;20092;-44
2021/05/04 01:14:10;;;;;;;3.63;2.58;;;8.60;55.50;;;;;;5139831;27;20046;-42
2021/05/04 01:16:41;;;;;;;5.13;2.70;;;8.60;55.40;;;;;;5140271;27;20299;-43
2021/05/04 01:19:07;;;;;;;4.03;2.45;;;8.60;55.50;;;;;;5139350;27;20039;-43
2021/05/04 01:21:32;;;;;;;5.68;2.83;;;8.60;55.60;;;;;;5140202;27;20125;-46
2021/05/04 01:23:58;;;;;;;4.65;2.78;;;8.60;55.70;;;;;;5139569;27;20406;-41
2021/05/04 01:26:24;;;;;;;3.85;2.70;;;8.60;55.80;;;;;;5140028;27;20034;-41
2021/05/04 01:28:49;;;;;;;3.45;2.75;;;8.60;55.90;;;;;;5139288;27;20122;-41
2021/05/04 01:31:15;;;;;;;6.90;2.83;;;8.50;55.90;;;;;;5139954;27;20023;-41
2021/05/04 01:33:41;;;;;;;4.45;2.88;;;8.50;55.90;;;;;;5139155;27;20061;-44
2021/05/04 01:36:07;;;;;;;2.90;2.50;;;8.50;55.90;;;;;;5139302;27;20046;-46
2021/05/04 01:38:32;;;;;;;6.80;2.88;;;8.50;55.90;;;;;;5138172;27;20028;-41
2021/05/04 01:40:58;;;;;;;4.60;2.58;;;8.50;56.10;;;;;;5139432;27;20072;-41
2021/05/04 01:43:23;;;;;;;2.72;2.08;;;8.50;56.10;;;;;;5139367;27;20023;-45
2021/05/04 01:45:49;;;;;;;4.97;2.75;;;8.40;56.10;;;;;;5121143;27;20322;-41
2021/05/04 01:48:15;;;;;;;2.85;2.45;;;8.40;56.20;;;;;;5139041;27;20315;-41
2021/05/04 01:50:40;;;;;;;4.03;2.40;;;8.40;56.20;;;;;;5139368;27;20426;-41
2021/05/04 01:53:06;;;;;;;4.35;2.70;;;8.40;56.20;;;;;;5138786;27;20422;-42
2021/05/04 01:55:32;;;;;;;5.38;2.83;;;8.40;56.40;;;;;;5139357;27;20413;-44
2021/05/04 01:57:57;;;;;;;5.25;2.78;;;8.40;56.40;;;;;;5138564;27;20136;-41
2021/05/04 02:00:23;;;;;;;3.65;2.60;;;8.30;56.60;;;;;;5139100;27;20030;-41
2021/05/04 02:02:49;;;;;;;4.05;2.50;;;8.30;56.80;;;;;;5138911;27;20030;-41
2021/05/04 02:05:14;;;;;;;4.30;2.70;;;8.30;56.90;;;;;;5139066;27;20061;-44
2021/05/04 02:07:40;;;;;;;5.18;2.88;;;8.30;56.70;;;;;;5138793;27;20031;-42
2021/05/04 02:10:07;;;;;;;4.07;2.50;;;8.30;56.80;;;;;;5138772;27;20093;-43
2021/05/04 02:12:32;;;;;;;4.93;2.90;;;8.30;56.90;;;;;;5138589;27;20039;-46
2021/05/04 02:14:58;;;;;;;3.78;2.92;;;8.20;56.70;;;;;;5138580;27;20084;-41
2021/05/04 02:17:24;;;;;;;4.95;2.60;;;8.20;56.80;;;;;;5138157;27;20074;-47
2021/05/04 02:19:50;;;;;;;3.50;2.40;;;8.20;56.90;;;;;;5139025;27;20027;-44
2021/05/04 02:22:15;;;;;;;3.83;2.55;;;8.20;57.00;;;;;;5138327;27;20047;-44
2021/05/04 02:24:41;;;;;;;4.68;2.38;;;8.20;57.10;;;;;;5138715;27;20019;-46
2021/05/04 02:27:07;;;;;;;3.83;2.60;;;8.20;57.10;;;;;;5138241;27;20023;-47
2021/05/04 02:29:33;;;;;;;4.13;2.40;;;8.20;57.20;;;;;;5138217;27;20027;-44
2021/05/04 02:31:59;;;;;;;4.05;3.00;;;8.20;57.30;;;;;;5138337;27;20027;-45
2021/05/04 02:34:24;;;;;;;4.43;2.67;;;8.20;57.30;;;;;;5138226;27;20016;-46
2021/05/04 02:36:50;;;;;;;5.03;3.10;;;8.20;57.30;;;;;;5137561;27;20050;-45
2021/05/04 02:39:16;;;;;;;3.10;2.53;;;8.20;57.40;;;;;;5137964;27;20035;-44
2021/05/04 02:41:41;;;;;;;4.53;2.67;;;8.20;57.50;;;;;;5138223;27;20174;-41
2021/05/04 02:44:07;;;;;;;4.85;2.70;;;8.20;57.60;;;;;;5137837;27;20454;-41
2021/05/04 02:46:34;;;;;;;8.82;3.55;;;8.10;57.70;;;;;;5138611;27;20050;-43
2021/05/04 02:49:00;;;;;;;5.22;3.00;;;8.10;57.80;;;;;;5137889;27;20110;-42
2021/05/04 02:51:25;;;;;;;4.95;2.70;;;8.10;58.00;;;;;;5119975;27;20122;-41
2021/05/04 02:53:52;;;;;;;5.00;3.20;;;8.10;58.10;;;;;;5137482;27;20027;-44
2021/05/04 02:56:18;;;;;;;4.78;2.85;;;8.00;58.30;;;;;;5138251;27;20173;-44
2021/05/04 02:58:44;;;;;;;4.53;2.63;;;8.00;58.40;;;;;;5137626;27;20304;-44
2021/05/04 03:01:10;;;;;;;6.90;3.20;;;8.00;58.50;;;;;;5138181;27;20026;-41
2021/05/04 03:03:36;;;;;;;4.40;3.22;;;8.00;58.50;;;;;;5137527;27;20031;-45
2021/05/04 03:06:03;;;;;;;5.10;2.90;;;8.00;58.80;;;;;;5138096;27;20065;-41
2021/05/04 03:08:29;;;;;;;6.22;2.97;;;8.00;58.90;;;;;;5137446;27;20030;-41
2021/05/04 03:10:55;;;;;;;5.85;3.33;;;8.00;58.90;;;;;;5137500;27;20402;-41
2021/05/04 03:13:26;;;;;;;13.90;3.38;;;8.00;58.90;;;;;;5137609;27;20023;-41
2021/05/04 03:15:52;;;;;;;6.22;3.40;;;8.00;59.10;;;;;;5138086;27;20024;-41
2021/05/04 03:18:18;;;;;;;7.30;3.08;;;8.10;59.10;;;;;;5136883;27;20110;-41
2021/05/04 03:20:44;;;;;;;5.57;3.42;;;8.10;59.10;;;;;;5137938;27;20024;-41
2021/05/04 03:23:10;;;;;;;5.15;3.05;;;8.10;59.10;;;;;;5137043;27;20038;-45
2021/05/04 03:25:35;;;;;;;6.38;3.10;;;8.10;59.00;;;;;;5137609;27;20030;-44
2021/05/04 03:28:01;;;;;;;4.57;2.90;;;8.20;59.20;;;;;;5137033;27;20068;-41
2021/05/04 03:30:27;;;;;;;5.72;3.42;;;8.20;59.20;;;;;;5119287;27;20031;-43
2021/05/04 03:32:53;;;;;;;7.43;3.33;;;8.20;59.10;;;;;;5136961;27;20029;-41
2021/05/04 03:35:19;;;;;;;4.55;3.47;;;8.30;59.20;;;;;;5137148;27;20027;-44
2021/05/04 03:37:46;;;;;;;7.07;3.17;;;8.30;59.40;;;;;;5136815;27;20032;-44
2021/05/04 03:40:13;;;;;;;25.95;3.70;;;8.30;59.30;;;;;;5137255;27;20023;-43
2021/05/04 03:42:38;;;;;;;4.90;3.00;;;8.40;59.40;;;;;;5136834;27;20025;-43
2021/05/04 03:45:05;;;;;;;3.45;2.80;;;8.50;59.40;;;;;;5137460;27;20356;-43
2021/05/04 03:47:31;;;;;;;5.53;3.10;;;8.50;59.40;;;;;;5136923;27;20323;-44
2021/05/04 03:49:57;;;;;;;5.43;2.72;;;8.50;59.10;;;;;;5137291;27;20038;-41
2021/05/04 03:52:22;;;;;;;7.18;3.40;;;8.50;59.20;;;;;;5136592;27;20425;-46
2021/05/04 03:54:49;;;;;;;5.13;3.42;;;8.60;59.20;;;;;;5136772;27;20019;-45
2021/05/04 03:57:14;;;;;;;5.47;3.42;;;8.60;59.20;;;;;;5136286;28;20078;-42
2021/05/04 03:59:40;;;;;;;6.93;2.97;;;8.70;59.10;;;;;;5136653;28;20027;-41
2021/05/04 04:02:06;;;;;;;6.40;3.47;;;8.70;59.10;;;;;;5135835;27;20028;-41
2021/05/04 04:04:31;;;;;;;5.07;3.42;;;8.80;59.20;;;;;;5136933;28;20047;-41
2021/05/04 04:06:57;;;;;;;6.30;3.65;;;8.80;59.00;;;;;;5131663;28;20318;-40
2021/05/04 04:09:23;;;;;;;7.40;3.17;;;8.80;58.90;;;;;;5136406;28;20072;-45
2021/05/04 04:11:48;;;;;;;7.25;4.00;;;8.80;59.00;;;;;;5135852;28;20102;-40
2021/05/04 04:14:14;;;;;;;5.38;3.50;;;8.80;58.90;;;;;;5136252;28;20052;-40
2021/05/04 04:16:40;;;;;;;4.75;3.35;;;8.90;59.10;;;;;;5136237;28;20027;-41
2021/05/04 04:19:07;;;;;;;5.45;3.30;;;8.90;59.00;;;;;;5136092;28;20366;-40
2021/05/04 04:21:34;;;;;;;5.13;2.92;;;8.90;59.10;;;;;;5136432;28;20019;-45
2021/05/04 04:24:00;;;;;;;5.40;3.58;;;9.00;59.00;;;;;;5136009;28;20023;-41
2021/05/04 04:26:25;;;;;;;4.72;3.47;;;9.00;59.10;;;;;;5136225;28;20024;-40
2021/05/04 04:28:51;;;;;;;7.82;4.00;;;9.10;59.00;;;;;;5136161;28;20031;-46
2021/05/04 04:31:17;;;;;;;9.38;3.83;;;9.10;58.90;;;;;;5135932;28;20033;-41
2021/05/04 04:33:42;;;;;;;7.95;3.63;;;9.10;58.90;;;;;;5135815;28;20031;-44
2021/05/04 04:36:08;;;;;;;5.95;3.95;;;9.20;59.00;;;;;;5136186;28;20040;-47
2021/05/04 04:38:34;;;;;;;5.35;3.88;;;9.30;59.00;;;;;;5135683;28;20099;-40
2021/05/04 04:41:00;;;;;;;7.15;4.07;;;9.30;58.60;;;;;;5136416;28;20068;-40
2021/05/04 04:43:25;;;;;;;5.30;3.80;;;9.30;58.30;;;;;;5135484;28;20080;-40
2021/05/04 04:45:51;;;;;;;6.10;3.72;;;9.40;58.30;;;;;;5136098;28;20019;-44
2021/05/04 04:48:17;;;;;;;6.68;3.72;;;9.40;58.30;;;;;;5135650;28;20031;-40
2021/05/04 04:50:43;;;;;;;7.13;4.35;;;9.40;58.50;;;;;;5135699;28;20020;-40
2021/05/04 04:53:08;;;;;;;7.47;3.80;;;9.50;58.40;;;;;;5135618;28;20058;-40
2021/05/04 04:55:34;;;;;;;7.50;3.88;;;9.50;58.50;;;;;;5135574;28;20050;-44
2021/05/04 04:57:59;;;;;;;7.30;3.67;;;9.60;58.50;;;;;;5135661;28;20028;-43
2021/05/04 05:00:26;;;;;;;7.25;4.85;;;9.70;58.40;;;;;;5136484;28;20102;-45
2021/05/04 05:02:51;;;;;;;5.75;4.35;;;9.80;58.20;;;;;;5136221;28;20027;-41
2021/05/04 05:05:17;;;;;;;6.38;4.20;;;9.80;58.10;;;;;;5135586;28;20485;-44
2021/05/04 05:07:43;;;;;;;6.00;4.00;;;9.80;58.00;;;;;;5132403;28;20042;-43
2021/05/04 05:10:11;;;;;;;7.72;4.30;;;9.90;57.80;;;;;;5135875;28;20026;-43
2021/05/04 05:12:37;;;;;;;11.13;5.68;;;10.00;57.70;;;;;;5135516;27;20031;-49
2021/05/04 05:15:04;;;;;;;8.95;4.18;;;10.00;57.90;;;;;;5139598;27;20482;-40
2021/05/04 05:17:30;;;;;;;7.78;5.13;;;10.10;57.90;;;;;;5138710;27;20063;-44
2021/05/04 05:19:58;;;;;;;7.32;4.53;;;10.20;58.00;;;;;;5136996;27;20039;-45
2021/05/04 05:22:23;;;;;;;8.95;5.03;;;10.20;57.80;;;;;;5136417;27;20410;-43
2021/05/04 05:24:49;;;;;;;5.03;3.85;;;10.30;57.50;;;;;;5138861;27;20019;-40
2021/05/04 05:27:15;;;;;;;7.95;4.28;;;10.40;57.50;;;;;;5138900;27;20096;-45
2021/05/04 05:29:41;;;;;;;14.25;5.10;;;10.40;57.40;;;;;;5138543;27;20111;-40
2021/05/04 05:32:07;;;;;;;5.53;4.40;;;10.50;56.80;;;;;;5138755;27;20039;-40
2021/05/04 05:34:32;;;;;;;7.28;4.25;;;10.60;57.00;;;;;;5138607;27;20411;-44
2021/05/04 05:36:58;;;;;;;6.68;4.45;;;10.60;57.00;;;;;;5138377;27;20071;-44
2021/05/04 05:39:24;;;;;;;6.60;4.63;;;10.60;56.90;;;;;;5138879;27;20411;-41
2021/05/04 05:41:50;;;;;;;6.10;4.30;;;10.70;56.70;;;;;;5138123;27;20055;-40
2021/05/04 05:44:16;;;;;;;8.80;3.97;;;10.70;56.80;;;;;;5138781;27;20086;-40
2021/05/04 05:46:42;;;;;;;9.88;5.13;;;10.80;56.80;;;;;;5138979;27;20023;-45
2021/05/04 05:49:09;;;;;;;7.53;5.05;;;10.90;56.70;;;;;;5138594;27;20121;-44
2021/05/04 05:51:35;;;;;;;6.95;4.55;;;10.90;56.30;;;;;;5134162;27;20079;-43
2021/05/04 05:54:01;;;;;;;8.45;4.55;;;11.00;56.20;;;;;;5138478;27;20110;-40
2021/05/04 05:56:27;;;;;;;7.65;4.30;;;11.00;55.90;;;;;;5137696;27;20042;-40
2021/05/04 05:58:52;;;;;;;5.78;4.05;;;11.10;55.40;;;;;;5137976;27;20124;-40
2021/05/04 06:01:18;;;;;;;5.47;4.20;;;11.10;55.60;;;;;;5138113;27;20397;-41
2021/05/04 06:03:43;;;;;;;5.43;4.22;;;11.10;55.50;;;;;;5137987;27;20406;-43
2021/05/04 06:06:09;;;;;;;7.80;4.20;;;11.20;55.70;;;;;;5137766;27;20031;-43
2021/05/04 06:08:35;;;;;;;8.05;4.72;;;11.30;55.70;;;;;;5138028;27;20066;-43
2021/05/04 06:11:00;;;;;;;12.23;4.78;;;11.30;55.40;;;;;;5138119;27;20035;-40
2021/05/04 06:13:26;;;;;;;6.22;4.78;;;11.40;55.00;;;;;;5138159;27;20046;-40
2021/05/04 06:15:52;;;;;;;7.88;4.57;;;11.40;55.10;;;;;;5138064;27;20449;-45
2021/05/04 06:18:17;;;;;;;11.95;5.25;;;11.50;55.00;;;;;;5137652;27;20042;-41
2021/05/04 06:20:44;;;;;;;19.33;4.95;;;11.50;55.10;;;;;;5137085;27;20417;-40
2021/05/04 06:23:10;;;;;;;10.27;6.05;;;11.60;54.90;;;;;;5137565;27;20049;-44
2021/05/04 06:25:36;;;;;;;5.70;4.03;;;11.60;54.40;;;;;;5137712;27;20033;-41
2021/05/04 06:28:07;;;;;;;6.93;4.40;;;11.70;54.40;;;;;;5137287;27;20110;-40
2021/05/04 06:30:35;;;;;;;;;;;11.70;54.10;;;;;;5138264;27;20419;-44
2021/05/04 06:33:09;;;;;;;7.47;4.22;;;11.80;54.20;;;;;;5137292;27;20306;-43
2021/05/04 06:35:37;;;;;;;6.38;4.05;;;11.80;53.50;;;;;;5137303;27;20442;-44
2021/05/04 06:38:04;;;;;;;6.15;4.43;;;11.90;53.40;;;;;;5137451;27;20118;-40
2021/05/04 06:40:30;;;;;;;6.50;4.10;;;11.90;53.10;;;;;;5137709;27;20036;-40
2021/05/04 06:42:56;;;;;;;5.53;4.32;;;12.00;52.80;;;;;;5137143;27;20031;-45
2021/05/04 06:45:22;;;;;;;7.53;3.95;;;12.10;53.10;;;;;;5137122;27;20080;-44
2021/05/04 06:47:47;;;;;;;7.05;4.07;;;12.10;53.00;;;;;;5137028;27;20035;-41
2021/05/04 06:50:13;;;;;;;9.40;4.40;;;12.20;53.00;;;;;;5137302;27;20349;-41
2021/05/04 06:52:39;;;;;;;5.10;4.30;;;12.20;53.00;;;;;;5136815;27;20107;-41
2021/05/04 06:55:05;;;;;;;8.48;4.65;;;12.30;52.10;;;;;;5136953;27;20398;-44
2021/05/04 06:57:31;;;;;;;5.50;3.90;;;12.30;52.20;;;;;;5136853;27;20381;-40
2021/05/04 06:59:57;;;;;;;5.70;4.28;;;12.40;52.10;;;;;;5136855;27;20027;-44
2021/05/04 07:02:22;;;;;;;5.20;3.90;;;12.50;51.80;;;;;;5136785;27;20322;-41
2021/05/04 07:04:48;;;;;;;7.65;4.00;;;12.50;50.50;;;;;;5137061;27;20034;-44
2021/05/04 07:07:14;;;;;;;5.30;4.03;;;12.60;50.90;;;;;;5136503;27;20035;-42
2021/05/04 07:09:39;;;;;;;7.60;3.92;;;12.60;51.10;;;;;;5136834;27;20309;-40
2021/05/04 07:12:06;;;;;;;9.82;4.82;;;12.70;50.70;;;;;;5136431;27;20031;-41
2021/05/04 07:14:32;;;;;;;8.25;4.13;;;12.80;50.60;;;;;;5136671;27;20031;-41
2021/05/04 07:17:00;;;;;;;7.82;4.00;;;12.90;50.50;;;;;;5136900;27;20106;-41
2021/05/04 07:19:26;;;;;;;6.30;4.00;;;13.00;49.70;;;;;;5136879;27;20023;-46
2021/05/04 07:21:53;;;;;;;7.82;3.95;;;13.10;49.10;;;;;;5135814;27;20031;-41
2021/05/04 07:24:18;;;;;;;6.30;3.58;;;13.20;49.20;;;;;;5136431;27;20019;-40
2021/05/04 07:26:44;;;;;;;4.88;3.70;;;13.30;49.10;;;;;;5136548;27;20330;-41
2021/05/04 07:29:10;;;;;;;4.43;3.38;;;13.40;47.70;;;;;;5136337;27;20360;-45
2021/05/04 07:31:35;;;;;;;5.70;3.70;;;13.40;47.30;;;;;;5136825;27;20410;-44
2021/05/04 07:34:01;;;;;;;6.90;3.30;;;13.50;46.80;;;;;;5136514;27;20295;-41
2021/05/04 07:36:29;;;;;;;8.70;4.03;;;13.50;46.50;;;;;;5135155;27;20042;-43
2021/05/04 07:38:55;;;;;;;5.00;3.38;;;13.50;46.70;;;;;;5131309;27;20039;-43
2021/05/04 07:41:21;;;;;;;6.13;3.97;;;13.50;47.70;;;;;;5136473;27;20023;-40
2021/05/04 07:43:46;;;;;;;6.68;4.22;;;13.50;47.10;;;;;;5135078;27;20023;-44
2021/05/04 07:46:12;;;;;;;3.75;3.10;;;13.60;47.10;;;;;;5136171;27;20044;-44
2021/05/04 07:48:38;;;;;;;8.23;3.88;;;13.70;47.10;;;;;;5135613;27;20031;-44
2021/05/04 07:51:05;;;;;;;6.70;3.60;;;13.60;47.20;;;;;;5135719;27;20069;-41
2021/05/04 07:53:32;;;;;;;4.57;3.47;;;13.70;46.80;;;;;;5135210;27;20027;-41
2021/05/04 07:55:57;;;;;;;12.50;4.43;;;13.70;46.60;;;;;;5136599;27;20092;-41
2021/05/04 07:58:23;;;;;;;4.80;3.08;;;13.70;46.70;;;;;;5135650;27;20027;-41
2021/05/04 08:00:49;;;;;;;5.70;3.30;;;13.70;45.70;;;;;;5136404;28;20084;-41
2021/05/04 08:03:15;;;;;;;5.68;3.13;;;13.70;45.60;;;;;;5135744;28;20031;-43
2021/05/04 08:05:41;;;;;;;8.05;4.05;;;13.70;45.40;;;;;;5117899;28;20049;-41
2021/05/04 08:08:09;;;;;;;4.72;3.40;;;13.70;45.30;;;;;;5135886;28;20039;-42
2021/05/04 08:10:35;;;;;;;5.13;3.25;;;13.70;45.20;;;;;;5135418;28;20418;-41
2021/05/04 08:13:03;;;;;;;4.38;2.97;;;13.60;45.00;;;;;;5136099;28;20122;-45
2021/05/04 08:15:28;;;;;;;4.13;2.85;;;13.60;44.90;;;;;;5136546;28;20072;-41
2021/05/04 08:18:04;;;;;;;4.85;3.40;;;13.60;44.80;;;;;;5135628;28;20035;-41
2021/05/04 08:20:32;;;;;;;4.63;3.00;;;13.50;44.80;;;;;;5136455;28;20334;-43
2021/05/04 08:22:59;;;;;;;8.48;3.38;;;13.50;45.10;;;;;;5135842;28;20027;-41
2021/05/04 08:25:25;;;;;;;7.57;3.70;;;13.50;45.20;;;;;;5136355;28;20031;-41
2021/05/04 08:27:52;;;;;;;11.30;3.72;;;13.40;45.60;;;;;;5136278;28;20027;-41
2021/05/04 08:30:18;;;;;;;8.77;4.82;;;13.40;47.90;;;;;;5136128;28;20019;-45
2021/05/04 08:32:43;;;;;;;8.35;4.10;;;13.30;50.70;;;;;;5136143;28;20041;-44
2021/05/04 08:35:10;;;;;;;11.07;5.03;;;13.20;51.60;;;;;;5136146;28;20034;-42
2021/05/04 08:37:35;;;;;;;4.82;3.53;;;13.10;54.60;;;;;;5132932;28;20040;-44
2021/05/04 08:40:01;;;;;;;6.50;4.45;;;13.00;54.40;;;;;;5135434;28;20030;-45
2021/05/04 08:42:27;;;;;;;5.78;3.50;;;13.00;55.70;;;;;;5134057;28;20023;-45
2021/05/04 08:44:53;;;;;;;4.50;3.47;;;12.90;54.00;;;;;;5135789;28;20027;-41
2021/05/04 08:47:20;;;;;;;6.43;3.80;;;12.90;54.30;;;;;;5137001;27;20110;-44
2021/05/04 08:49:47;;;;;;;6.57;3.70;;;12.90;53.80;;;;;;5139912;27;20027;-41
2021/05/04 08:52:13;;;;;;;5.22;3.75;;;12.90;54.10;;;;;;5139544;27;20019;-41
2021/05/04 08:54:39;;;;;;;14.45;4.07;;;13.00;54.40;;;;;;5139737;27;20406;-45
2021/05/04 08:57:05;;;;;;;6.57;3.00;;;13.00;52.80;;;;;;5139509;27;20023;-45
2021/05/04 08:59:30;;;;;;;4.38;3.20;;;13.00;51.30;;;;;;5136527;27;20022;-41
2021/05/04 09:01:56;;;;;;;11.70;5.28;;;13.00;50.80;;;;;;5137772;27;20108;-40
2021/05/04 09:04:48;;;;;;;6.35;4.20;;;13.00;51.00;;;;;;5138649;27;20023;-41
2021/05/04 09:07:17;;;;;;;7.90;4.85;;;13.00;50.60;;;;;;5139616;27;20125;-46
2021/05/04 09:12:40;;;;;;;7.22;3.10;;;13.20;49.00;;;;;;5139125;27;20031;-45
2021/05/04 09:15:29;;;;;;;4.78;3.10;;;13.20;48.10;;;;;;5137269;27;20031;-47
2021/05/04 09:18:04;;;;;;;6.50;3.45;;;13.30;48.50;;;;;;5138944;27;20047;-47
2021/05/04 09:20:44;;;;;;;5.43;2.97;;;13.40;48.50;;;;;;5139018;27;20114;-44
2021/05/04 09:23:09;;;;;;;6.53;3.60;;;13.50;48.50;;;;;;5138386;27;20407;-49
2021/05/04 09:25:37;;;;;;;6.50;2.90;;;13.70;48.20;;;;;;5138575;27;20273;-43
2021/05/04 09:28:20;;;;;;;4.70;2.50;;;13.80;46.90;;;;;;5139084;27;20080;-43
2021/05/04 09:30:57;;;;;;;6.45;3.00;;;13.70;46.10;;;;;;5138754;27;20063;-45
2021/05/04 09:33:24;;;;;;;5.78;2.50;;;13.80;45.70;;;;;;5138985;27;20043;-43
2021/05/04 09:35:50;;;;;;;5.03;2.42;;;13.70;45.40;;;;;;5138559;27;20055;-44
2021/05/04 09:38:18;;;;;;;3.85;2.70;;;13.70;45.80;;;;;;5138734;27;20041;-45
2021/05/04 09:40:48;;;;;;;3.72;2.80;;;13.70;45.70;;;;;;5138563;27;20031;-43
2021/05/04 09:43:18;;;;;;;4.05;2.40;;;13.80;45.70;;;;;;5138654;27;20031;-41
2021/05/04 09:45:48;;;;;;;;;;;13.90;45.40;;;;;;5139351;27;20031;-43
2021/05/04 09:48:24;;;;;;;3.42;2.45;;;14.00;46.10;;;;;;5138661;27;20245;-42
2021/05/04 09:50:56;;;;;;;3.00;2.08;;;14.10;45.00;;;;;;5138656;27;20039;-43
2021/05/04 09:53:24;;;;;;;5.97;2.97;;;14.10;44.40;;;;;;5137963;27;20027;-40
2021/05/04 09:55:55;;;;;;;22.77;3.85;;;14.20;43.50;;;;;;5138905;27;20410;-46
2021/05/04 09:58:34;;;;;;;;;;;14.30;43.50;;;;;;5138145;27;20055;-41
2021/05/04 10:01:00;;;;;;;5.40;2.60;;;14.30;44.10;;;;;;5137831;27;19915;-46
2021/05/04 10:03:27;;;;;;;3.78;2.22;;;14.30;43.70;;;;;;5137900;27;20023;-46
2021/05/04 10:05:57;;;;;;;2.97;2.13;;;14.30;43.40;;;;;;5138581;27;20135;-41
2021/05/04 10:08:23;;;;;;;5.88;2.72;;;14.30;43.50;;;;;;5138122;27;20029;-44
2021/05/04 10:10:49;;;;;;;13.95;2.63;;;14.40;43.60;;;;;;5135446;27;20030;-44
2021/05/04 10:13:16;;;;;;;5.43;2.45;;;14.30;43.70;;;;;;5136670;27;20073;-40
2021/05/04 10:15:46;;;;;;;4.32;2.00;;;14.20;43.70;;;;;;5120114;27;20027;-43
2021/05/04 10:18:13;;;;;;;8.70;3.03;;;14.20;44.00;;;;;;5137567;27;20028;-41
2021/05/04 10:20:41;;;;;;;7.80;2.47;;;14.10;44.60;;;;;;5137578;27;20027;-45
2021/05/04 10:23:10;;;;;;;3.50;2.40;;;14.00;45.10;;;;;;5138138;27;20356;-46
2021/05/04 10:25:36;;;;;;;4.63;2.33;;;14.00;44.90;;;;;;5138005;27;20059;-40
2021/05/04 10:28:03;;;;;;;4.32;2.25;;;14.00;44.90;;;;;;5137515;27;20145;-41
2021/05/04 10:30:30;;;;;;;11.32;2.75;;;14.10;45.20;;;;;;5137988;27;20027;-44
2021/05/04 10:33:07;;;;;;;6.53;2.47;;;14.20;45.70;;;;;;5137524;27;20439;-46
2021/05/04 10:35:34;;;;;;;13.30;4.50;;;14.30;45.20;;;;;;5137953;27;20070;-40
2021/05/04 10:38:14;;;;;;;13.65;4.53;;;14.40;44.80;;;;;;5137547;27;20551;-40
2021/05/04 10:40:46;;;;;;;7.13;4.93;;;14.60;48.20;;;;;;5137766;27;20030;-43
2021/05/04 10:43:21;;;;;;;5.30;3.13;;;14.60;47.60;;;;;;5137514;27;20103;-44
2021/05/04 10:45:47;;;;;;;8.10;2.88;;;14.60;48.30;;;;;;5137723;27;20031;-44
2021/05/04 10:48:13;;;;;;;4.60;2.70;;;14.60;47.70;;;;;;5137435;27;20028;-47
2021/05/04 10:50:58;;;;;;;4.45;2.38;;;14.60;46.80;;;;;;5138120;27;20078;-40
2021/05/04 10:53:25;;;;;;;10.70;3.08;;;14.60;45.20;;;;;;5137480;27;20038;-40
2021/05/04 10:55:54;;;;;;;3.72;2.20;;;14.70;45.30;;;;;;5119507;27;20118;-41
2021/05/04 10:58:21;;;;;;;8.80;2.67;;;14.80;43.50;;;;;;5137005;27;20164;-40
2021/05/04 11:00:58;;;;;;;4.05;1.95;;;14.90;43.00;;;;;;5137785;27;20031;-45
2021/05/04 11:03:33;;;;;;;3.58;2.45;;;14.90;42.20;;;;;;5137223;27;20038;-47
2021/05/04 11:06:31;;;;;;;3.85;2.53;;;15.00;41.90;;;;;;5137814;27;20023;-41
2021/05/04 11:08:58;;;;;;;3.90;2.53;;;15.00;43.40;;;;;;5136487;27;20035;-41
2021/05/04 11:11:42;;;;;;;3.67;2.60;;;14.90;43.70;;;;;;5137543;27;20031;-41
2021/05/04 11:14:29;;;;;;;3.42;2.53;;;14.90;43.70;;;;;;5137106;27;20046;-44
2021/05/04 11:16:56;;;;;;;6.53;2.47;;;14.80;42.50;;;;;;5136501;27;20042;-40
2021/05/04 11:19:29;;;;;;;3.15;2.22;;;14.80;42.90;;;;;;5137127;27;20105;-49
2021/05/04 11:21:57;;;;;;;6.45;2.83;;;14.90;43.40;;;;;;5137370;27;20035;-41
2021/05/04 11:24:29;;;;;;;6.22;2.70;;;15.00;44.00;;;;;;5137242;27;20027;-45
2021/05/04 11:26:57;;;;;;;6.38;2.85;;;15.20;43.80;;;;;;5136868;27;20410;-41
2021/05/04 11:29:29;;;;;;;4.55;2.25;;;15.30;42.20;;;;;;5137257;27;20319;-41
2021/05/04 11:32:07;;;;;;;5.72;2.33;;;15.50;40.70;;;;;;5136949;27;20066;-46
2021/05/04 11:34:35;;;;;;;8.68;2.60;;;15.50;40.60;;;;;;5136031;27;20052;-40
2021/05/04 11:37:02;;;;;;;3.10;2.33;;;15.50;40.40;;;;;;5133265;27;20047;-44
2021/05/04 11:39:28;;;;;;;5.25;3.45;;;15.50;40.20;;;;;;5136597;27;20116;-41
2021/05/04 11:41:59;;;;;;;5.03;2.80;;;15.40;39.80;;;;;;5135850;27;20445;-41
2021/05/04 11:44:25;;;;;;;4.43;3.10;;;15.30;39.90;;;;;;5136647;27;20245;-40
2021/05/04 11:46:51;;;;;;;8.82;3.97;;;15.30;40.10;;;;;;5135870;27;20425;-46
2021/05/04 11:49:28;;;;;;;7.07;4.32;;;15.20;40.30;;;;;;5136303;27;20035;-41
2021/05/04 11:52:08;;;;;;;7.00;3.67;;;15.20;41.20;;;;;;5136404;27;20034;-41
2021/05/04 11:54:35;;;;;;;7.85;4.32;;;15.10;40.90;;;;;;5135945;27;20082;-41
2021/05/04 11:57:01;;;;;;;5.45;3.42;;;15.00;41.60;;;;;;5136040;27;20035;-41
2021/05/04 11:59:28;;;;;;;9.52;3.30;;;14.90;41.50;;;;;;5136124;27;20107;-41
2021/05/04 12:01:55;;;;;;;4.70;2.72;;;14.90;42.00;;;;;;5135901;28;20322;-41
2021/05/04 12:04:46;;;;;;;3.35;2.58;;;14.90;42.10;;;;;;5133005;28;20023;-41
2021/05/04 12:07:12;;;;;;;7.38;2.80;;;14.80;42.60;;;;;;5135937;28;20023;-41
2021/05/04 12:09:37;;;;;;;6.20;3.25;;;14.60;43.90;;;;;;5135889;28;20433;-41
2021/05/04 12:12:13;;;;;;;7.30;4.15;;;14.50;45.00;;;;;;5135835;28;20070;-41
2021/05/04 12:14:59;;;;;;;3.70;2.67;;;14.40;46.70;;;;;;5135834;28;20023;-41
2021/05/04 12:17:28;;;;;;;8.13;2.90;;;14.60;49.30;;;;;;5135923;28;20039;-43
2021/05/04 12:20:15;;;;;;;4.20;2.55;;;14.70;47.50;;;;;;5135739;28;20083;-41
2021/05/04 12:22:45;;;;;;;6.20;2.50;;;15.00;46.30;;;;;;5138217;27;20066;-44
2021/05/04 12:25:12;;;;;;;15.43;2.75;;;15.20;44.70;;;;;;5140133;27;20019;-42
2021/05/04 12:27:39;;;;;;;8.70;2.92;;;15.30;44.10;;;;;;5139754;27;20027;-44
2021/05/04 12:30:08;;;;;;;8.55;2.53;;;15.50;43.70;;;;;;5140152;27;20042;-41
2021/05/04 12:32:34;;;;;;;4.57;2.10;;;15.80;43.90;;;;;;5139840;27;20088;-46
2021/05/04 12:35:26;;;;;;;2.90;2.10;;;16.00;42.70;;;;;;5139413;27;20051;-42
2021/05/04 12:38:06;;;;;;;8.35;2.58;;;16.40;42.00;;;;;;5139689;27;20060;-44
2021/05/04 12:40:32;;;;;;;4.68;2.95;;;16.70;39.60;;;;;;5139676;27;20030;-41
2021/05/04 12:43:20;;;;;;;3.45;2.20;;;16.90;39.00;;;;;;5140028;27;20031;-45
2021/05/04 12:46:25;;;;;;;5.10;2.38;;;17.10;38.00;;;;;;5140022;27;20031;-41
2021/05/04 12:48:54;;;;;;;3.17;2.35;;;17.20;38.10;;;;;;5087645;27;20040;-41
2021/05/04 12:51:34;;;;;;;2.75;1.90;;;17.30;38.40;;;;;;5140048;27;20050;-41
2021/05/04 12:54:12;;;;;;;4.07;2.70;;;17.40;38.00;;;;;;5139566;27;20084;-45
2021/05/04 12:56:38;;;;;;;2.80;2.20;;;17.40;38.50;;;;;;5139879;27;20035;-42